Custer, SD

12:22 AM MDT on July 28, 2014 (GMT -0600)
Mondell (KECS) Elev 4173 ft | 43.89 °N, 104.32 °W | Change Station

Current weather conditions updated 7 minutes ago

Clear
Clear
59 °F
Feels Like 59 °F
N
8
Wind Variable Wind from SSE

Today is forecast to be Cooler than yesterday. Showers and thunderstorms late tonight.

Today
High -- | Low -- °F
--% Chance of Precip.
Yesterday
High -- | Low -- °F
Precip. -- in
5:39 AM 8:22 PM
New Moon, 2% visible
Pressure 30.35 in
Visibility 10.0 miles
Clouds Clear
Dew Point 41 °F
Humidity 51%
Rainfall 0.00 in
Snow Depth Not available.
UV 0 out of 12
Pollen 7.40 out of 12
Air Quality Not available.
Flu Activity Not available.
METAR KECS 280615Z AUTO 15007KT 10SM CLR 15/05 A3035 RMK AO2

More Conditions Fewer Conditions

Pressure 30.35 in
Visibility 10.0 miles
Clouds Clear
Dew Point 41 °F
Humidity 51%
Rainfall 0.00 in
Snow Depth Not available.
UV 0 out of 12
Pollen 7.40 out of 12
Air Quality Not available.
Flu Activity Not available.
METAR KECS 280615Z AUTO 15007KT 10SM CLR 15/05 A3035 RMK AO2

More Conditions Fewer Conditions

10-Day Weather Forecast

Almanac

Astronomy

Jul. 28, 2014 Rise Set
Actual Time 5:39 AM MDT 8:22 PM MDT
Civil Twilight 5:06 AM MDT 8:55 PM MDT
Nautical Twilight 4:24 AM MDT 9:37 PM MDT
Astronomical Twilight 3:35 AM MDT 10:24 PM MDT
Moon 7:28 AM MDT 8:59 PM MDT
Length of Visible Light 15h 49m
Length of Day
14h 42m
Tomorrow will be 2m 11s shorter.
New Moon, 2% of the Moon is Illuminated
Today
New Moon
Aug 3
First Quarter
Aug 10
Full
Aug 17
Last Quarter
Aug 25
New

Today's Extremes

State Highs State Lows

Community

WunderPhotos

Upload Photos

1,738,289 photos uploaded!

Nearby

Snow Depth

Station Depth Elevation
Blind Park 0 in 6890 ft

Earthquake Activity

City Distance Mag. Time & Date
No recent earthquake activity has been reported nearby.
Minimum magnitude displayed is 2.5.

Coastal Water Temperatures

Place Temperature
No Stations Reporting

Nearby Weather Stations

Station Location Temp. Dew Point Humidity Wind Precip. Elev Updated Type
RAWS CUSTER SD, Custer, SD 55 °F 47 °F 74% East  at  3 mph 0.00 in / hr 5820 ft 11:24 PM MDT MADIS
RAWS BAKER PARK SD, Keystone, SD 57 °F 50 °F 76% SSE  at  1 mph 0.00 in / hr 4673 ft 11:35 PM MDT MADIS
RAWS RED CANYON SD, Edgemont, SD 64 °F 48 °F 56% NNW  at  7 mph 0.00 in / hr 4644 ft 10:57 PM MDT MADIS
RAWS BKF3 PORTABLE SD, Hill City, SD 50 °F 46 °F 86% NNE  at  1 mph 0.00 in / hr 6629 ft 11:36 PM MDT MADIS
Mike's Place Black Hills, Hermosa, SD 60.3 °F 52 °F 73% North  at  0.0 mph 0.00 in / hr 4009 ft 12:17 AM MDT Normal
Prairie Creek, Rapid City, SD 51.4 °F 47 °F 84% SE  at  0.0 mph 0.00 in / hr 4488 ft 12:22 AM MDT Rapid Fire
Bear Country- Copper Canyon, Rapid City, SD 59.4 °F 51 °F 74% SSE  at  2.2 mph - / hr 4222 ft 12:09 AM MDT Normal
HADS BEAVER CREEK NEAR BUFFALO GAP 2S SD, Buffalo Gap, SD 63 °F - - North  at  - 0.00 in / hr 3149 ft 10:45 PM MDT MADIS

Show More Stations Show Fewer Stations